Time;durP1;ratioP1;P1;durP2;ratioP2;P2;SDS_P1;SDS_P2;PMS_P1;PMS_P2;Temp;Humidity;BMP_temperature;BMP_pressure;BME280_temperature;BME280_humidity;BME280_pressure;Samples;Min_cycle;Max_cycle;Signal;HPM_P1;HPM_P2
2021/06/27 00:01:20;;;;;;;74.82;43.50;;;;;;;-145.50;100.00;65435.88;4891387;29;20091;-48
2021/06/27 00:03:47;;;;;;;77.10;43.35;;;;;;;-145.50;100.00;65435.88;4873258;29;20056;-48
2021/06/27 00:06:14;;;;;;;77.88;43.53;;;;;;;-145.50;100.00;65435.88;4894332;29;20052;-48
2021/06/27 00:08:41;;;;;;;77.43;43.72;;;;;;;-145.50;100.00;65435.88;4887682;29;20489;-49
2021/06/27 00:11:09;;;;;;;83.40;45.80;;;;;;;-145.50;100.00;65435.88;4895408;29;20505;-47
2021/06/27 00:13:37;;;;;;;;;;;;;;;-145.50;100.00;65435.88;4886450;29;20138;-48
2021/06/27 00:16:05;;;;;;;73.18;42.15;;;;;;;-145.50;100.00;65435.88;4881879;29;20427;-48
2021/06/27 00:18:33;;;;;;;76.85;43.67;;;;;;;-145.50;100.00;65435.88;4890536;29;20813;-48
2021/06/27 00:21:03;;;;;;;73.47;44.20;;;;;;;-145.50;100.00;65435.88;4886766;29;20154;-50
2021/06/27 00:23:36;;;;;;;77.43;42.42;;;;;;;-145.50;100.00;65435.88;4906814;29;20453;-48
2021/06/27 00:26:06;;;;;;;79.50;43.40;;;;;;;-145.50;100.00;65435.88;4886090;29;20543;-49
2021/06/27 00:28:32;;;;;;;82.53;43.38;;;;;;;-145.50;100.00;65435.88;4892000;29;20532;-47
2021/06/27 00:31:00;;;;;;;72.47;41.40;;;;;;;-145.50;100.00;65435.88;4883907;29;20136;-48
2021/06/27 00:33:26;;;;;;;85.43;44.53;;;;;;;-145.50;100.00;65435.88;4892055;29;20102;-49
2021/06/27 00:35:53;;;;;;;75.10;43.40;;;;;;;-145.50;100.00;65435.88;4889487;29;20143;-49
2021/06/27 00:38:20;;;;;;;84.15;43.22;;;;;;;-145.50;100.00;65435.88;4894267;29;20143;-49
2021/06/27 00:40:46;;;;;;;84.07;44.58;;;;;;;-145.50;100.00;65435.88;4886867;29;20155;-48
2021/06/27 00:43:13;;;;;;;79.63;44.45;;;;;;;-145.50;100.00;65435.88;4872664;29;20163;-48
2021/06/27 00:45:40;;;;;;;88.00;47.53;;;;;;;-145.50;100.00;65435.88;4881554;29;20084;-49
2021/06/27 00:48:08;;;;;;;85.50;46.55;;;;;;;-145.50;100.00;65435.88;4884080;29;20528;-48
2021/06/27 00:50:38;;;;;;;84.20;46.45;;;;;;;-145.50;100.00;65435.88;4891965;29;20059;-49
2021/06/27 00:53:06;;;;;;;83.18;45.10;;;;;;;-145.50;100.00;65435.88;4872571;29;20083;-48
2021/06/27 00:55:33;;;;;;;92.50;46.28;;;;;;;-145.50;100.00;65435.88;4881623;29;20167;-48
2021/06/27 00:58:00;;;;;;;91.53;47.37;;;;;;;-145.50;100.00;65435.88;4890492;29;20144;-51
2021/06/27 01:00:38;;;;;;;88.72;48.15;;;;;;;-145.50;100.00;65435.88;4887113;29;20199;-47
2021/06/27 01:03:07;;;;;;;84.65;45.38;;;;;;;-145.50;100.00;65435.88;4881970;29;20085;-51
2021/06/27 01:05:37;;;;;;;86.80;46.85;;;;;;;-145.50;100.00;65435.88;4873587;29;20084;-48
2021/06/27 01:08:05;;;;;;;86.28;46.80;;;;;;;-145.50;100.00;65435.88;4873717;29;20052;-49
2021/06/27 01:10:32;;;;;;;94.72;48.03;;;;;;;-145.50;100.00;65435.88;4868336;29;20143;-48
2021/06/27 01:13:00;;;;;;;101.25;48.75;;;;;;;-145.50;100.00;65435.88;4878479;29;20438;-48
2021/06/27 01:15:26;;;;;;;96.70;50.75;;;;;;;-145.50;100.00;65435.88;4878699;29;20060;-48
2021/06/27 01:17:55;;;;;;;94.18;48.40;;;;;;;-145.50;100.00;65435.88;4873604;29;20147;-49
2021/06/27 01:20:28;;;;;;;92.78;49.05;;;;;;;-145.50;100.00;65435.88;4859978;29;20064;-48
2021/06/27 01:22:58;;;;;;;92.78;48.75;;;;;;;-145.50;100.00;65435.88;4869242;29;20063;-48
2021/06/27 01:25:30;;;;;;;81.97;45.50;;;;;;;-145.50;100.00;65435.88;4879766;29;20156;-51
2021/06/27 01:27:58;;;;;;;98.07;49.33;;;;;;;-145.50;100.00;65435.88;4885391;29;20052;-47
2021/06/27 01:30:28;;;;;;;93.57;47.30;;;;;;;-145.50;100.00;65435.88;4894716;29;20203;-47
2021/06/27 01:32:56;;;;;;;106.57;51.83;;;;;;;-145.50;100.00;65435.88;4880287;29;20523;-49
2021/06/27 01:35:25;;;;;;;95.95;49.05;;;;;;;-145.50;100.00;65435.88;4892023;29;20079;-48
2021/06/27 01:37:53;;;;;;;93.50;49.15;;;;;;;-145.50;100.00;65435.88;4884735;29;20063;-47
2021/06/27 01:40:25;;;;;;;;;;;;;;;-145.50;100.00;65435.88;4868532;29;20091;-50
2021/06/27 01:42:53;;;;;;;107.88;51.97;;;;;;;-145.50;100.00;65435.88;4890562;29;19927;-48
2021/06/27 01:45:25;;;;;;;109.85;55.17;;;;;;;-145.50;100.00;65435.88;4882106;29;20147;-47
2021/06/27 01:48:06;;;;;;;106.93;53.22;;;;;;;-145.50;100.00;65435.88;4887391;29;20147;-48
2021/06/27 01:50:34;;;;;;;109.15;54.08;;;;;;;-145.50;100.00;65435.88;4885307;29;20056;-47
2021/06/27 01:53:02;;;;;;;111.35;55.08;;;;;;;-145.50;100.00;65435.88;4890337;29;20052;-47
2021/06/27 01:55:29;;;;;;;110.63;55.22;;;;;;;-145.50;100.00;65435.88;4884589;29;20084;-48
2021/06/27 01:57:56;;;;;;;114.80;56.35;;;;;;;-145.50;100.00;65435.88;4891335;29;20163;-48
2021/06/27 02:00:26;;;;;;;113.05;56.00;;;;;;;-145.50;100.00;65435.88;4887518;29;20055;-48
2021/06/27 02:02:52;;;;;;;109.72;53.42;;;;;;;-145.50;100.00;65435.88;4884033;29;20849;-48
2021/06/27 02:05:19;;;;;;;114.47;54.55;;;;;;;-145.50;100.00;65435.88;4889895;29;20147;-48
2021/06/27 02:07:46;;;;;;;107.63;52.42;;;;;;;-145.50;100.00;65435.88;4880118;29;20056;-49
2021/06/27 02:10:19;;;;;;;118.60;55.25;;;;;;;-145.50;100.00;65435.88;4887080;29;20147;-48
2021/06/27 02:12:47;;;;;;;115.05;57.00;;;;;;;-145.50;100.00;65435.88;4873471;29;20088;-48
2021/06/27 02:15:14;;;;;;;109.50;54.13;;;;;;;-145.50;100.00;65435.88;4890400;29;20062;-48
2021/06/27 02:17:50;;;;;;;122.55;56.42;;;;;;;-145.50;100.00;65435.88;4885958;29;20531;-47
2021/06/27 02:20:17;;;;;;;117.10;55.03;;;;;;;-145.50;100.00;65435.88;4897058;29;20159;-47
2021/06/27 02:22:44;;;;;;;115.28;54.97;;;;;;;-145.50;100.00;65435.88;4888440;29;20139;-47
2021/06/27 02:25:11;;;;;;;121.32;56.22;;;;;;;-145.50;100.00;65435.88;4874619;29;20057;-48
2021/06/27 02:28:37;;;;;;;121.37;57.50;;;;;;;-145.50;100.00;65435.88;4876144;29;20056;-47
2021/06/27 02:32:04;;;;;;;123.53;55.72;;;;;;;-145.50;100.00;65435.88;4883496;29;20164;-47
2021/06/27 02:35:30;;;;;;;122.13;56.85;;;;;;;-145.50;100.00;65435.88;4885897;29;20139;-47
2021/06/27 02:38:55;;;;;;;125.18;55.47;;;;;;;-145.50;100.00;65435.88;4875577;29;20242;-48
2021/06/27 02:42:20;;;;;;;130.98;57.95;;;;;;;-145.50;100.00;65435.88;4874330;29;20592;-49
2021/06/27 02:45:31;;;;;;;133.18;57.38;;;;;;;-145.50;100.00;65435.88;4878608;29;20263;-49
2021/06/27 02:48:17;;;;;;;137.27;58.95;;;;;;;-145.50;100.00;65435.88;4899134;29;20790;-48
2021/06/27 02:51:13;;;;;;;131.65;58.58;;;;;;;-145.50;100.00;65435.88;4891734;29;20060;-49
2021/06/27 02:54:00;;;;;;;133.18;57.78;;;;;;;-145.50;100.00;65435.88;4879260;29;20140;-47
2021/06/27 02:56:47;;;;;;;122.43;56.63;;;;;;;-145.50;100.00;65435.88;4889261;29;20087;-48
2021/06/27 02:59:35;;;;;;;130.95;60.70;;;;;;;-145.50;100.00;65435.88;4890732;29;20088;-49
2021/06/27 03:02:22;;;;;;;133.77;60.28;;;;;;;-145.50;100.00;65435.88;4872204;29;20526;-48
2021/06/27 03:05:13;;;;;;;113.50;56.00;;;;;;;-145.50;100.00;65435.88;4869282;29;20161;-50
2021/06/27 03:08:20;;;;;;;134.70;62.65;;;;;;;-145.50;100.00;65435.88;4868772;29;20168;-47
2021/06/27 03:11:19;;;;;;;131.88;56.40;;;;;;;-145.50;100.00;65435.88;4872140;29;20085;-48
2021/06/27 03:14:29;;;;;;;128.75;59.15;;;;;;;-145.50;100.00;65435.88;4866620;29;20053;-49
2021/06/27 03:17:17;;;;;;;136.02;60.22;;;;;;;-145.50;100.00;65435.88;4872830;29;20500;-48
2021/06/27 03:20:06;;;;;;;136.05;60.80;;;;;;;-145.50;100.00;65435.88;4862502;29;20147;-48
2021/06/27 03:23:13;;;;;;;138.23;60.58;;;;;;;-145.50;100.00;65435.88;4885871;29;20447;-48
2021/06/27 03:26:09;;;;;;;128.50;58.28;;;;;;;-145.50;100.00;65435.88;4888752;29;20167;-48
2021/06/27 03:29:14;;;;;;;146.65;62.00;;;;;;;-145.50;100.00;65435.88;4893641;29;20056;-48
2021/06/27 03:32:01;;;;;;;133.07;60.03;;;;;;;-145.50;100.00;65435.88;4883841;29;20845;-47
2021/06/27 03:35:26;;;;;;;140.30;59.57;;;;;;;-145.50;100.00;65435.88;4872039;29;20151;-49
2021/06/27 03:38:38;;;;;;;143.68;59.97;;;;;;;-145.50;100.00;65435.88;4869831;29;20334;-48
2021/06/27 03:41:54;;;;;;;136.88;59.28;;;;;;;-145.50;100.00;65435.88;4888079;29;20167;-47
2021/06/27 03:44:45;;;;;;;129.18;57.40;;;;;;;-145.50;100.00;65435.88;4892473;29;20090;-48
2021/06/27 03:48:10;;;;;;;125.97;56.20;;;;;;;-145.50;100.00;65435.88;4885119;29;20203;-47
2021/06/27 03:51:08;;;;;;;141.63;60.30;;;;;;;-145.50;100.00;65435.88;4906088;29;20083;-48
2021/06/27 03:54:11;;;;;;;136.65;58.72;;;;;;;-145.50;100.00;65435.88;4878311;29;20057;-48
2021/06/27 03:56:58;;;;;;;146.50;61.17;;;;;;;-145.50;100.00;65435.88;4900817;29;20088;-48
2021/06/27 04:00:05;;;;;;;142.18;57.70;;;;;;;-145.50;100.00;65435.88;4877999;29;20096;-48
2021/06/27 04:03:13;;;;;;;143.45;60.78;;;;;;;-145.50;100.00;65435.88;4888732;29;20156;-48
2021/06/27 04:06:30;;;;;;;140.68;60.45;;;;;;;-145.50;100.00;65435.88;4880195;29;20151;-48
2021/06/27 04:09:36;;;;;;;138.63;60.10;;;;;;;-145.50;100.00;65435.88;4891815;29;20088;-48
2021/06/27 04:13:01;;;;;;;135.05;59.42;;;;;;;-145.50;100.00;65435.88;4891437;29;20048;-48
2021/06/27 04:16:29;;;;;;;125.82;55.15;;;;;;;-145.50;100.00;65435.88;4885796;29;20087;-48
2021/06/27 04:19:51;;;;;;;131.77;56.90;;;;;;;-145.50;100.00;65435.88;4892663;29;20594;-49
2021/06/27 04:22:48;;;;;;;133.80;56.65;;;;;;;-145.50;100.00;65435.88;4876155;29;20052;-48
2021/06/27 04:26:14;;;;;;;144.18;60.08;;;;;;;-145.50;100.00;65435.88;4888304;29;20152;-48
2021/06/27 04:29:35;;;;;;;126.90;56.42;;;;;;;-145.50;100.00;65435.88;4890057;29;20080;-48
2021/06/27 04:32:34;;;;;;;134.40;55.80;;;;;;;-145.50;100.00;65435.88;4885645;29;20485;-49
2021/06/27 04:35:36;;;;;;;126.97;55.70;;;;;;;-145.50;100.00;65435.88;4891391;29;20789;-48
2021/06/27 04:39:02;;;;;;;118.22;53.55;;;;;;;-145.50;100.00;65435.88;4879813;29;20083;-47
2021/06/27 04:41:52;;;;;;;126.45;56.20;;;;;;;-145.50;100.00;65435.88;4890073;29;20131;-47
2021/06/27 04:45:13;;;;;;;128.73;55.28;;;;;;;-145.50;100.00;65435.88;4880100;29;20163;-48
2021/06/27 04:48:01;;;;;;;126.50;54.03;;;;;;;-145.50;100.00;65435.88;4894068;29;20139;-47
2021/06/27 04:51:13;;;;;;;116.70;51.40;;;;;;;-145.50;100.00;65435.88;4875591;29;20154;-49
2021/06/27 04:54:06;;;;;;;116.60;53.92;;;;;;;-145.50;100.00;65435.88;4888195;29;20171;-51
2021/06/27 04:57:24;;;;;;;124.65;54.20;;;;;;;-145.50;100.00;65435.88;4882717;29;20171;-47
2021/06/27 05:00:44;;;;;;;119.43;54.53;;;;;;;-145.50;100.00;65435.88;4879121;29;20484;-49
2021/06/27 05:03:32;;;;;;;130.45;56.15;;;;;;;-145.50;100.00;65435.88;4890640;29;20080;-48
2021/06/27 05:06:39;;;;;;;113.75;52.72;;;;;;;-145.50;100.00;65435.88;4887675;29;20147;-48
2021/06/27 05:09:46;;;;;;;116.50;52.97;;;;;;;-145.50;100.00;65435.88;4888309;29;20143;-49
2021/06/27 05:13:04;;;;;;;115.90;52.92;;;;;;;-145.50;100.00;65435.88;4884688;29;20780;-49
2021/06/27 05:16:25;;;;;;;119.03;53.63;;;;;;;-145.50;100.00;65435.88;4882148;29;20588;-49
2021/06/27 05:19:28;;;;;;;111.85;51.80;;;;;;;-145.50;100.00;65435.88;4885479;29;20088;-48
2021/06/27 05:22:30;;;;;;;113.68;53.33;;;;;;;-145.50;100.00;65435.88;4886049;29;20143;-48
2021/06/27 05:25:17;;;;;;;112.10;52.85;;;;;;;-145.50;100.00;65435.88;4887339;29;20314;-49
2021/06/27 05:28:42;;;;;;;110.72;52.75;;;;;;;-145.50;100.00;65435.88;4891525;29;20683;-49
2021/06/27 05:31:54;;;;;;;110.65;51.38;;;;;;;-145.50;100.00;65435.88;4883872;29;20111;-50
2021/06/27 05:34:58;;;;;;;107.45;53.53;;;;;;;-145.50;100.00;65435.88;4884131;29;20053;-47
2021/06/27 05:37:59;;;;;;;122.70;52.67;;;;;;;-145.50;100.00;65435.88;4877673;29;20063;-51
2021/06/27 05:41:18;;;;;;;125.45;53.60;;;;;;;-145.50;100.00;65435.88;4887394;29;20056;-49
2021/06/27 05:44:43;;;;;;;116.03;53.15;;;;;;;-145.50;100.00;65435.88;4890130;29;20144;-48
2021/06/27 05:47:44;;;;;;;113.85;53.05;;;;;;;-145.50;100.00;65435.88;4894367;29;20143;-49
2021/06/27 05:50:41;;;;;;;108.22;50.50;;;;;;;-145.50;100.00;65435.88;4894738;29;20147;-49
2021/06/27 05:53:44;;;;;;;108.38;49.40;;;;;;;-145.50;100.00;65435.88;4873754;29;20101;-49
2021/06/27 05:56:48;;;;;;;110.30;49.88;;;;;;;-145.50;100.00;65435.88;4884763;29;20139;-48
2021/06/27 06:00:13;;;;;;;115.15;52.67;;;;;;;-145.50;100.00;65435.88;4894951;29;20120;-48
2021/06/27 06:03:33;;;;;;;104.15;50.22;;;;;;;-145.50;100.00;65435.88;4880210;29;20148;-49
2021/06/27 06:06:27;;;;;;;106.93;48.45;;;;;;;-145.50;100.00;65435.88;4887052;29;20512;-49
2021/06/27 06:09:42;;;;;;;108.40;49.95;;;;;;;-145.50;100.00;65435.88;4884423;29;20107;-48
2021/06/27 06:12:30;;;;;;;103.07;47.67;;;;;;;-145.50;100.00;65435.88;4880318;29;20054;-49
2021/06/27 06:15:20;;;;;;;104.80;49.65;;;;;;;-145.50;100.00;65435.88;4884453;29;20155;-48
2021/06/27 06:18:36;;;;;;;100.95;48.90;;;;;;;-145.50;100.00;65435.88;4886213;29;20497;-48
2021/06/27 06:21:37;;;;;;;101.35;49.38;;;;;;;-145.50;100.00;65435.88;4883465;29;20091;-49
2021/06/27 06:24:31;;;;;;;100.53;51.33;;;;;;;-145.50;100.00;65435.88;4885750;29;20084;-50
2021/06/27 06:27:21;;;;;;;104.47;51.83;;;;;;;-145.50;100.00;65435.88;4890193;29;20516;-49
2021/06/27 06:30:11;;;;;;;107.38;50.78;;;;;;;-145.50;100.00;65435.88;4885388;29;20112;-48
2021/06/27 06:33:30;;;;;;;101.32;48.33;;;;;;;-145.50;100.00;65435.88;4875834;29;20053;-48
2021/06/27 06:36:30;;;;;;;100.53;48.38;;;;;;;-145.50;100.00;65435.88;4879685;29;20057;-48
2021/06/27 06:39:22;;;;;;;95.05;47.10;;;;;;;-145.50;100.00;65435.88;4897612;29;20175;-50
2021/06/27 06:41:57;;;;;;;101.38;47.45;;;;;;;-145.50;100.00;65435.88;4884015;29;20179;-49
2021/06/27 06:44:47;;;;;;;96.90;47.45;;;;;;;-145.50;100.00;65435.88;4877635;29;20142;-49
2021/06/27 06:47:51;;;;;;;94.88;48.28;;;;;;;-145.50;100.00;65435.88;4887241;29;20079;-50
2021/06/27 06:50:39;;;;;;;98.50;48.15;;;;;;;-145.50;100.00;65435.88;4889679;29;20099;-50
2021/06/27 06:53:15;;;;;;;103.18;50.75;;;;;;;-145.50;100.00;65435.88;4870238;29;20056;-50
2021/06/27 06:56:02;;;;;;;106.85;50.03;;;;;;;-145.50;100.00;65435.88;4878369;29;20567;-52
2021/06/27 06:58:29;;;;;;;91.77;47.47;;;;;;;-145.50;100.00;65435.88;4866285;29;20152;-48
2021/06/27 07:01:00;;;;;;;93.05;47.70;;;;;;;-145.50;100.00;65435.88;4878702;29;21108;-52
2021/06/27 07:03:47;;;;;;;104.43;47.20;;;;;;;-145.50;100.00;65435.88;4875825;29;20056;-49
2021/06/27 07:06:14;;;;;;;88.75;45.33;;;;;;;-145.50;100.00;65435.88;4874525;29;20088;-50
2021/06/27 07:08:45;;;;;;;95.00;47.42;;;;;;;-145.50;100.00;65435.88;4874946;29;20532;-53
2021/06/27 07:11:11;;;;;;;97.50;46.88;;;;;;;-145.50;100.00;65435.88;4871941;29;20092;-50
2021/06/27 07:14:02;;;;;;;89.88;44.63;;;;;;;-145.50;100.00;65435.88;4888054;29;20060;-49
2021/06/27 07:16:34;;;;;;;90.53;46.63;;;;;;;-145.50;100.00;65435.88;4888281;29;20084;-48
2021/06/27 07:19:01;;;;;;;89.88;46.15;;;;;;;-145.50;100.00;65435.88;4893641;29;20049;-49
2021/06/27 07:21:43;;;;;;;83.22;43.60;;;;;;;-145.50;100.00;65435.88;4878366;29;20091;-49
2021/06/27 07:24:10;;;;;;;82.03;41.70;;;;;;;-145.50;100.00;65435.88;4890050;29;20140;-49
2021/06/27 07:26:36;;;;;;;79.22;43.40;;;;;;;-145.50;100.00;65435.88;4877149;29;20574;-49
2021/06/27 07:29:03;;;;;;;83.30;42.00;;;;;;;-145.50;100.00;65435.88;4885471;29;20090;-49
2021/06/27 07:31:30;;;;;;;80.17;43.73;;;;;;;-145.50;100.00;65435.88;4898509;29;20072;-49
2021/06/27 07:33:56;;;;;;;78.05;43.42;;;;;;;-145.50;100.00;65435.88;4879350;29;20801;-49
2021/06/27 07:36:23;;;;;;;81.65;43.03;;;;;;;-145.50;100.00;65435.88;4885796;29;20160;-48
2021/06/27 07:38:49;;;;;;;78.57;40.22;;;;;;;-145.50;100.00;65435.88;4880709;29;20104;-49
2021/06/27 07:41:16;;;;;;;78.75;43.50;;;;;;;-145.50;100.00;65435.88;4888102;29;20156;-49
2021/06/27 07:43:42;;;;;;;86.22;43.95;;;;;;;-145.50;100.00;65435.88;4878478;29;20085;-51
2021/06/27 07:46:28;;;;;;;86.95;44.65;;;;;;;-145.50;100.00;65435.88;4887844;29;20146;-49
2021/06/27 07:48:55;;;;;;;87.10;44.67;;;;;;;-145.50;100.00;65435.88;4885639;29;20163;-49
2021/06/27 07:51:21;;;;;;;79.85;43.85;;;;;;;-145.50;100.00;65435.88;4889269;29;20056;-49
2021/06/27 07:54:07;;;;;;;80.07;43.20;;;;;;;-145.50;100.00;65435.88;4873445;29;20087;-49
2021/06/27 07:56:55;;;;;;;82.25;42.28;;;;;;;-145.50;100.00;65435.88;4874199;29;20164;-49
2021/06/27 07:59:30;;;;;;;78.63;42.67;;;;;;;-145.50;100.00;65435.88;4883495;29;20052;-50
2021/06/27 08:02:23;;;;;;;86.97;45.05;;;;;;;-145.50;100.00;65435.88;4871113;29;20147;-49
2021/06/27 08:05:11;;;;;;;86.07;44.58;;;;;;;-145.50;100.00;65435.88;4885306;29;20052;-49
2021/06/27 08:07:48;;;;;;;;;;;;;;;-145.50;100.00;65435.88;4882202;29;20151;-49
2021/06/27 08:10:55;;;;;;;80.53;40.03;;;;;;;-145.50;100.00;65435.88;4886354;29;20323;-50
2021/06/27 08:13:43;;;;;;;75.65;42.33;;;;;;;-145.50;100.00;65435.88;4886383;29;20417;-51
2021/06/27 08:16:31;;;;;;;76.97;42.92;;;;;;;-145.50;100.00;65435.88;4892136;29;20843;-49
2021/06/27 08:18:58;;;;;;;78.88;44.42;;;;;;;-145.50;100.00;65435.88;4885169;29;20233;-52
2021/06/27 08:21:48;;;;;;;80.15;42.97;;;;;;;-145.50;100.00;65435.88;4880505;29;21938;-49
2021/06/27 08:24:37;;;;;;;79.75;42.75;;;;;;;-145.50;100.00;65435.88;4884183;29;20160;-51
2021/06/27 08:27:24;;;;;;;83.00;45.38;;;;;;;-145.50;100.00;65435.88;4891682;29;20159;-49
2021/06/27 08:30:04;;;;;;;87.43;45.70;;;;;;;-145.50;100.00;65435.88;4885419;29;20217;-49
2021/06/27 08:33:06;;;;;;;84.40;44.60;;;;;;;-145.50;100.00;65435.88;4891404;29;20063;-51
2021/06/27 08:35:54;;;;;;;75.13;41.05;;;;;;;-145.50;100.00;65435.88;4881198;29;20068;-50
2021/06/27 08:38:44;;;;;;;79.32;43.08;;;;;;;-145.50;100.00;65435.88;4883561;29;20060;-48
2021/06/27 08:41:34;;;;;;;80.78;44.67;;;;;;;-145.50;100.00;65435.88;4882777;29;20089;-49
2021/06/27 08:44:22;;;;;;;81.07;43.13;;;;;;;-145.50;100.00;65435.88;4888225;29;20058;-50
2021/06/27 08:47:18;;;;;;;76.70;41.88;;;;;;;-145.50;100.00;65435.88;4891170;29;20083;-49
2021/06/27 08:50:15;;;;;;;67.80;40.23;;;;;;;-145.50;100.00;65435.88;4887753;29;20143;-49
2021/06/27 08:53:09;;;;;;;77.43;43.63;;;;;;;-145.50;100.00;65435.88;4875058;29;20125;-50
2021/06/27 08:56:05;;;;;;;80.60;43.28;;;;;;;-145.50;100.00;65435.88;4881831;29;20498;-50
2021/06/27 08:59:05;;;;;;;79.05;41.92;;;;;;;-145.50;100.00;65435.88;4878628;29;20148;-50
2021/06/27 09:02:00;;;;;;;83.45;41.72;;;;;;;-145.50;100.00;65435.88;4887786;29;20088;-50
2021/06/27 09:04:48;;;;;;;79.22;42.50;;;;;;;-145.50;100.00;65435.88;4880561;29;20088;-50
2021/06/27 09:07:50;;;;;;;77.03;43.50;;;;;;;-145.50;100.00;65435.88;4883896;29;20104;-50
2021/06/27 09:10:39;;;;;;;80.57;41.45;;;;;;;-145.50;100.00;65435.88;4897003;29;20147;-48
2021/06/27 09:13:53;;;;;;;67.55;39.80;;;;;;;-145.50;100.00;65435.88;4882122;29;20059;-52
2021/06/27 09:17:23;;;;;;;74.68;40.97;;;;;;;-145.50;100.00;65435.88;4888626;29;20163;-51
2021/06/27 09:20:55;;;;;;;74.00;39.45;;;;;;;-145.50;100.00;65435.88;4890015;29;20156;-52
2021/06/27 09:23:54;;;;;;;71.50;40.00;;;;;;;-145.50;100.00;65435.88;4881408;29;20063;-49
2021/06/27 09:26:45;;;;;;;69.95;39.58;;;;;;;-145.50;100.00;65435.88;4882854;29;20096;-50
2021/06/27 09:29:55;;;;;;;64.75;38.47;;;;;;;-145.50;100.00;65435.88;4890640;29;20167;-50
2021/06/27 09:33:21;;;;;;;68.07;37.83;;;;;;;-145.50;100.00;65435.88;4875531;29;20083;-51
2021/06/27 09:36:15;;;;;;;65.63;39.13;;;;;;;-145.50;100.00;65435.88;4894339;29;20485;-51
2021/06/27 09:38:50;;;;;;;63.30;37.58;;;;;;;-145.50;100.00;65435.88;4891855;29;20079;-48
2021/06/27 09:41:49;;;;;;;67.72;35.88;;;;;;;-145.50;100.00;65435.88;4898517;29;20101;-51
2021/06/27 09:45:06;;;;;;;67.85;38.38;;;;;;;-145.50;100.00;65435.88;4890790;29;20044;-51
2021/06/27 09:48:06;;;;;;;63.97;36.00;;;;;;;-145.50;100.00;65435.88;4883871;29;20158;-50
2021/06/27 09:50:54;;;;;;;66.70;37.33;;;;;;;-145.50;100.00;65435.88;4891849;29;20183;-50
2021/06/27 09:54:00;;;;;;;58.88;35.30;;;;;;;-145.50;100.00;65435.88;4891464;29;20056;-52
2021/06/27 09:56:47;;;;;;;65.07;35.35;;;;;;;-145.50;100.00;65435.88;4883031;29;20156;-50
2021/06/27 09:59:42;;;;;;;;;;;;;;;-145.50;100.00;65435.88;4865161;29;20893;-48
2021/06/27 10:02:51;;;;;;;56.45;33.88;;;;;;;-145.50;100.00;65435.88;4888099;29;20437;-50
2021/06/27 10:05:44;;;;;;;61.47;34.50;;;;;;;-145.50;100.00;65435.88;4879606;29;20087;-51
2021/06/27 10:08:51;;;;;;;58.25;33.88;;;;;;;-145.50;100.00;65435.88;4888600;29;20425;-51
2021/06/27 10:11:57;;;;;;;57.58;33.85;;;;;;;-145.50;100.00;65435.88;4884521;29;20075;-51
2021/06/27 10:14:49;;;;;;;59.15;34.10;;;;;;;-145.50;100.00;65435.88;4887937;29;20079;-48
2021/06/27 10:17:36;;;;;;;54.45;33.45;;;;;;;-145.50;100.00;65435.88;4884264;29;20363;-50
2021/06/27 10:20:25;;;;;;;57.60;33.20;;;;;;;-145.50;100.00;65435.88;4890202;29;20131;-51
2021/06/27 10:23:12;;;;;;;50.97;32.15;;;;;;;-145.50;100.00;65435.88;4883899;29;20139;-53
2021/06/27 10:26:01;;;;;;;51.17;30.67;;;;;;;-145.50;100.00;65435.88;4880849;29;20088;-49
2021/06/27 10:28:49;;;;;;;53.40;33.47;;;;;;;-145.50;100.00;65435.88;4880699;29;20109;-49
2021/06/27 10:31:37;;;;;;;51.80;31.60;;;;;;;-145.50;100.00;65435.88;4890789;29;20156;-49
2021/06/27 10:34:26;;;;;;;51.75;30.92;;;;;;;-145.50;100.00;65435.88;4878549;29;20581;-51
2021/06/27 10:37:19;;;;;;;50.67;31.60;;;;;;;-145.50;100.00;65435.88;4885441;29;20564;-50
2021/06/27 10:40:23;;;;;;;51.50;29.13;;;;;;;-145.50;100.00;65435.88;4881556;29;20052;-53
2021/06/27 10:43:10;;;;;;;50.55;30.95;;;;;;;-145.50;100.00;65435.88;4885606;29;20143;-50
2021/06/27 10:46:01;;;;;;;50.15;29.25;;;;;;;-145.50;100.00;65435.88;4887993;29;20144;-49
2021/06/27 10:48:33;;;;;;;44.97;27.67;;;;;;;-145.50;100.00;65435.88;4893505;29;20151;-49
2021/06/27 10:51:23;;;;;;;48.08;28.30;;;;;;;-145.50;100.00;65435.88;4883969;29;20417;-53
2021/06/27 10:54:40;;;;;;;44.05;27.23;;;;;;;-145.50;100.00;65435.88;4885713;29;20516;-49
2021/06/27 10:57:50;;;;;;;48.85;28.15;;;;;;;-145.50;100.00;65435.88;4887268;29;20139;-50
2021/06/27 11:00:53;;;;;;;41.17;26.05;;;;;;;-145.50;100.00;65435.88;4884223;29;20135;-49
2021/06/27 11:03:52;;;;;;;41.05;25.60;;;;;;;-145.50;100.00;65435.88;4883210;29;20055;-49
2021/06/27 11:06:39;;;;;;;43.38;24.33;;;;;;;-145.50;100.00;65435.88;4878589;29;20063;-49
2021/06/27 11:09:44;;;;;;;37.42;23.70;;;;;;;-145.50;100.00;65435.88;4882428;29;20155;-49
2021/06/27 11:12:52;;;;;;;31.15;19.90;;;;;;;-145.50;100.00;65435.88;4881703;29;20109;-49
2021/06/27 11:15:58;;;;;;;35.03;21.65;;;;;;;-145.50;100.00;65435.88;4889687;29;20123;-49
2021/06/27 11:18:52;;;;;;;33.33;22.77;;;;;;;-145.50;100.00;65435.88;4882660;29;20057;-51
2021/06/27 11:21:41;;;;;;;31.20;20.83;;;;;;;-145.50;100.00;65435.88;4885297;29;20148;-52
2021/06/27 11:24:31;;;;;;;29.67;18.20;;;;;;;-145.50;100.00;65435.88;4879990;29;20139;-50
2021/06/27 11:27:31;;;;;;;30.20;18.58;;;;;;;-145.50;100.00;65435.88;4887305;29;20564;-49
2021/06/27 11:30:40;;;;;;;29.08;18.13;;;;;;;-145.50;100.00;65435.88;4869465;29;20060;-52
2021/06/27 11:33:35;;;;;;;33.40;19.35;;;;;;;-145.50;100.00;65435.88;4873843;29;20057;-49
2021/06/27 11:36:26;;;;;;;28.98;19.60;;;;;;;-145.50;100.00;65435.88;4872347;29;20148;-51
2021/06/27 11:39:33;;;;;;;28.20;17.33;;;;;;;-145.50;100.00;65435.88;4869218;29;20060;-51
2021/06/27 11:42:23;;;;;;;31.67;18.92;;;;;;;-145.50;100.00;65435.88;4870898;29;20057;-51
2021/06/27 11:45:26;;;;;;;25.13;16.88;;;;;;;-145.50;100.00;65435.88;4874709;29;20143;-51
2021/06/27 11:48:13;;;;;;;27.20;16.65;;;;;;;-145.50;100.00;65435.88;4875083;29;20052;-51
2021/06/27 11:51:04;;;;;;;23.08;15.90;;;;;;;-145.50;100.00;65435.88;4872326;29;20080;-50
2021/06/27 11:53:52;;;;;;;21.75;14.95;;;;;;;-145.50;100.00;65435.88;4868848;29;20159;-50
2021/06/27 11:56:58;;;;;;;20.75;14.23;;;;;;;-145.50;100.00;65435.88;4874048;29;20143;-50
2021/06/27 11:59:53;;;;;;;20.73;13.48;;;;;;;-145.50;100.00;65435.88;4887580;29;20474;-53
2021/06/27 12:02:48;;;;;;;17.70;13.20;;;;;;;-145.50;100.00;65435.88;4896293;29;20127;-49
2021/06/27 12:05:35;;;;;;;21.02;13.13;;;;;;;-145.50;100.00;65435.88;4890307;29;20125;-49
2021/06/27 12:08:25;;;;;;;18.40;13.18;;;;;;;-145.50;100.00;65435.88;4902537;29;20056;-49
2021/06/27 12:11:14;;;;;;;17.38;12.45;;;;;;;-145.50;100.00;65435.88;4891806;29;20088;-52
2021/06/27 12:14:01;;;;;;;16.17;12.05;;;;;;;-145.50;100.00;65435.88;4892797;29;20394;-49
2021/06/27 12:16:31;;;;;;;17.77;12.52;;;;;;;-145.50;100.00;65435.88;4890090;29;20084;-49
2021/06/27 12:19:01;;;;;;;18.33;13.23;;;;;;;-145.50;100.00;65435.88;4892840;29;20067;-51
2021/06/27 12:21:48;;;;;;;23.02;13.80;;;;;;;-145.50;100.00;65435.88;4880493;29;20060;-49
2021/06/27 12:24:37;;;;;;;21.55;13.50;;;;;;;-145.50;100.00;65435.88;4883940;29;20537;-49
2021/06/27 12:27:34;;;;;;;18.98;12.95;;;;;;;-145.50;100.00;65435.88;4890337;29;20103;-49
2021/06/27 12:30:00;;;;;;;17.55;13.05;;;;;;;-145.50;100.00;65435.88;4880588;29;20159;-49
2021/06/27 12:33:01;;;;;;;18.30;12.88;;;;;;;-145.50;100.00;65435.88;4892853;29;20092;-51